Time;durP1;ratioP1;P1;durP2;ratioP2;P2;SDS_P1;SDS_P2;PMS_P1;PMS_P2;Temp;Humidity;BMP_temperature;BMP_pressure;BME280_temperature;BME280_humidity;BME280_pressure;Samples;Min_cycle;Max_cycle;Signal;HPM_P1;HPM_P2
2023/05/05 00:00:57;;;;;;;76.40;49.15;;;;;;;;;;5030459;28;20044;-70
2023/05/05 00:03:23;;;;;;;64.88;43.65;;;;;;;;;;5026953;28;20030;-70
2023/05/05 00:05:48;;;;;;;39.00;30.75;;;;;;;;;;5028287;28;20053;-74
2023/05/05 00:08:14;;;;;;;46.10;36.10;;;;;;;;;;5030276;28;20334;-72
2023/05/05 00:10:41;;;;;;;48.83;35.47;;;;;;;;;;5026390;28;20041;-71
2023/05/05 00:13:07;;;;;;;39.67;29.20;;;;;;;;;;5027633;28;20416;-71
2023/05/05 00:15:32;;;;;;;54.42;38.75;;;;;;;;;;5029431;28;20095;-72
2023/05/05 00:17:57;;;;;;;50.35;36.40;;;;;;;;;;5020909;28;20108;-73
2023/05/05 00:20:23;;;;;;;50.15;32.45;;;;;;;;;;5028477;28;20164;-70
2023/05/05 00:22:48;;;;;;;37.10;26.27;;;;;;;;;;5027524;28;20464;-74
2023/05/05 00:25:14;;;;;;;36.78;25.00;;;;;;;;;;5033526;28;20746;-71
2023/05/05 00:27:39;;;;;;;36.05;23.95;;;;;;;;;;5030291;28;20052;-74
2023/05/05 00:30:05;;;;;;;34.88;24.65;;;;;;;;;;5026157;28;20438;-71
2023/05/05 00:32:30;;;;;;;44.67;30.27;;;;;;;;;;5029307;28;20329;-73
2023/05/05 00:34:55;;;;;;;42.50;30.38;;;;;;;;;;5026733;28;20861;-70
2023/05/05 00:37:21;;;;;;;25.95;20.08;;;;;;;;;;5025403;28;20403;-70
2023/05/05 00:39:46;;;;;;;40.33;25.13;;;;;;;;;;5011925;28;20088;-73
2023/05/05 00:42:11;;;;;;;45.05;29.63;;;;;;;;;;5033689;28;20045;-70
2023/05/05 00:44:38;;;;;;;42.40;27.98;;;;;;;;;;5025907;28;20053;-73
2023/05/05 00:47:03;;;;;;;40.58;28.48;;;;;;;;;;5024602;28;20021;-74
2023/05/05 00:49:29;;;;;;;44.70;32.00;;;;;;;;;;5027864;28;20400;-76
2023/05/05 00:51:55;;;;;;;64.63;43.58;;;;;;;;;;5023819;28;20203;-71
2023/05/05 00:54:20;;;;;;;69.70;48.00;;;;;;;;;;5028057;28;20040;-75
2023/05/05 00:56:46;;;;;;;56.58;40.90;;;;;;;;;;5018500;28;20402;-71
2023/05/05 00:59:12;;;;;;;55.65;39.00;;;;;;;;;;5028074;28;20037;-73
2023/05/05 01:01:37;;;;;;;58.65;39.72;;;;;;;;;;5030657;28;20021;-72
2023/05/05 01:04:03;;;;;;;51.83;36.42;;;;;;;;;;5027016;28;20345;-71
2023/05/05 01:06:47;;;;;;;41.75;32.83;;;;;;;;;;5026837;28;20025;-76
2023/05/05 01:09:12;;;;;;;46.03;33.90;;;;;;;;;;5029674;28;20113;-72
2023/05/05 01:11:41;;;;;;;48.80;32.25;;;;;;;;;;5021992;28;20041;-71
2023/05/05 01:14:23;;;;;;;75.07;46.03;;;;;;;;;;5011828;28;20037;-73
2023/05/05 01:17:08;;;;;;;62.38;40.03;;;;;;;;;;5025050;28;20349;-73
2023/05/05 01:19:37;;;;;;;49.80;34.97;;;;;;;;;;5004133;28;20175;-70
2023/05/05 01:22:06;;;;;;;44.20;31.60;;;;;;;;;;5024716;28;20033;-74
2023/05/05 01:24:50;;;;;;;41.30;26.52;;;;;;;;;;5026141;28;20039;-72
2023/05/05 01:27:26;;;;;;;38.40;26.33;;;;;;;;;;5023707;28;20086;-75
2023/05/05 01:30:00;;;;;;;37.53;28.08;;;;;;;;;;5028331;28;20021;-73
2023/05/05 01:32:27;;;;;;;33.28;25.38;;;;;;;;;;5025342;28;20040;-72
2023/05/05 01:34:54;;;;;;;36.22;27.45;;;;;;;;;;5030675;28;20037;-72
2023/05/05 01:37:31;;;;;;;32.78;24.92;;;;;;;;;;5025257;28;20075;-72
2023/05/05 01:39:58;;;;;;;32.47;26.10;;;;;;;;;;5024669;28;20440;-76
2023/05/05 01:42:24;;;;;;;28.25;21.85;;;;;;;;;;5028186;28;20049;-71
2023/05/05 01:44:50;;;;;;;22.42;19.98;;;;;;;;;;5019328;28;20032;-70
2023/05/05 01:47:18;;;;;;;28.00;20.25;;;;;;;;;;5006020;28;20036;-74
2023/05/05 01:49:45;;;;;;;32.60;22.23;;;;;;;;;;5018506;28;20029;-71
2023/05/05 01:52:11;;;;;;;30.75;21.88;;;;;;;;;;5022516;28;20044;-70
2023/05/05 01:54:37;;;;;;;30.38;22.92;;;;;;;;;;5024440;28;20025;-73
2023/05/05 01:57:04;;;;;;;29.55;22.63;;;;;;;;;;5020706;28;20531;-75
2023/05/05 01:59:31;;;;;;;24.88;20.40;;;;;;;;;;5009611;28;20048;-71
2023/05/05 02:01:58;;;;;;;20.10;16.58;;;;;;;;;;5024112;28;20033;-78
2023/05/05 02:04:25;;;;;;;20.75;15.02;;;;;;;;;;5023673;28;21060;-71
2023/05/05 02:06:52;;;;;;;14.93;13.13;;;;;;;;;;5027857;28;20112;-72
2023/05/05 02:09:18;;;;;;;14.88;10.55;;;;;;;;;;5015115;28;20025;-75
2023/05/05 02:11:43;;;;;;;16.33;12.50;;;;;;;;;;5001610;28;20040;-76
2023/05/05 02:14:09;;;;;;;14.52;12.90;;;;;;;;;;5021660;28;20043;-73
2023/05/05 02:16:36;;;;;;;13.90;12.55;;;;;;;;;;5018408;28;20021;-71
2023/05/05 02:19:04;;;;;;;12.70;11.50;;;;;;;;;;5026807;28;20425;-71
2023/05/05 02:21:30;;;;;;;14.52;13.00;;;;;;;;;;5026814;28;20055;-71
2023/05/05 02:23:56;;;;;;;13.45;12.05;;;;;;;;;;5018013;28;20944;-73
2023/05/05 02:26:22;;;;;;;13.00;11.80;;;;;;;;;;5014448;28;20045;-72
2023/05/05 02:29:00;;;;;;;13.38;12.07;;;;;;;;;;5019652;28;20385;-74
2023/05/05 02:31:27;;;;;;;13.25;11.80;;;;;;;;;;5021483;28;20037;-72
2023/05/05 02:33:54;;;;;;;14.13;11.68;;;;;;;;;;5026424;28;20083;-71
2023/05/05 02:36:21;;;;;;;14.63;12.80;;;;;;;;;;5009855;28;20036;-71
2023/05/05 02:38:48;;;;;;;13.52;12.13;;;;;;;;;;5022039;28;20044;-73
2023/05/05 02:41:15;;;;;;;14.10;12.70;;;;;;;;;;5023603;28;20429;-72
2023/05/05 02:43:42;;;;;;;15.10;13.30;;;;;;;;;;5024799;28;20036;-71
2023/05/05 02:46:08;;;;;;;13.88;12.43;;;;;;;;;;5023317;28;20032;-75
2023/05/05 02:48:33;;;;;;;13.93;12.57;;;;;;;;;;5028469;28;20024;-71
2023/05/05 02:50:59;;;;;;;14.32;13.02;;;;;;;;;;5023905;28;20486;-72
2023/05/05 02:53:25;;;;;;;13.90;12.60;;;;;;;;;;5014144;28;20036;-71
2023/05/05 02:55:53;;;;;;;13.68;12.38;;;;;;;;;;5011314;28;20018;-76
2023/05/05 02:58:19;;;;;;;15.10;12.77;;;;;;;;;;5011876;28;20026;-71
2023/05/05 03:01:03;;;;;;;15.10;13.70;;;;;;;;;;5021624;28;20026;-72
2023/05/05 03:03:36;;;;;;;15.82;13.23;;;;;;;;;;5012575;28;20353;-71
2023/05/05 03:06:12;;;;;;;17.17;12.40;;;;;;;;;;5031232;28;20442;-75
2023/05/05 03:08:53;;;;;;;15.32;13.40;;;;;;;;;;5024638;28;20047;-74
2023/05/05 03:11:25;;;;;;;14.25;12.95;;;;;;;;;;5023863;28;20411;-71
2023/05/05 03:13:53;;;;;;;13.27;12.00;;;;;;;;;;5025935;28;20120;-74
2023/05/05 03:16:20;;;;;;;14.25;12.85;;;;;;;;;;5018322;28;20032;-71
2023/05/05 03:18:47;;;;;;;14.35;13.05;;;;;;;;;;5017206;28;20033;-75
2023/05/05 03:21:13;;;;;;;14.80;12.35;;;;;;;;;;5029123;28;20038;-72
2023/05/05 03:23:38;;;;;;;13.20;12.00;;;;;;;;;;5023457;28;20447;-71
2023/05/05 03:26:03;;;;;;;12.43;11.00;;;;;;;;;;5032445;28;20029;-70
2023/05/05 03:28:29;;;;;;;12.38;11.07;;;;;;;;;;5020848;28;20433;-71
2023/05/05 03:30:55;;;;;;;13.38;12.07;;;;;;;;;;5017283;28;20031;-71
2023/05/05 03:33:20;;;;;;;12.75;11.52;;;;;;;;;;5031470;28;20047;-70
2023/05/05 03:35:45;;;;;;;10.57;9.73;;;;;;;;;;5018904;28;20025;-72
2023/05/05 03:38:11;;;;;;;12.07;10.57;;;;;;;;;;5019913;28;20031;-72
2023/05/05 03:40:36;;;;;;;13.60;10.68;;;;;;;;;;5018219;28;21053;-73
2023/05/05 03:43:01;;;;;;;18.65;16.85;;;;;;;;;;5004384;28;20081;-76
2023/05/05 03:45:27;;;;;;;14.93;13.43;;;;;;;;;;5027960;28;20707;-74
2023/05/05 03:47:52;;;;;;;12.02;10.93;;;;;;;;;;5031443;28;20354;-71
2023/05/05 03:50:18;;;;;;;12.85;11.55;;;;;;;;;;5023280;28;20033;-71
2023/05/05 03:52:43;;;;;;;20.67;18.45;;;;;;;;;;5018883;28;20029;-71
2023/05/05 03:55:09;;;;;;;18.80;17.00;;;;;;;;;;5001827;28;20364;-70
2023/05/05 03:57:34;;;;;;;14.75;13.32;;;;;;;;;;5017771;28;20028;-71
2023/05/05 04:00:00;;;;;;;15.65;14.10;;;;;;;;;;5026079;28;20060;-71
2023/05/05 04:02:25;;;;;;;20.95;18.80;;;;;;;;;;5028432;28;20360;-74
2023/05/05 04:04:50;;;;;;;22.88;20.58;;;;;;;;;;5027174;28;20029;-70
2023/05/05 04:07:16;;;;;;;23.55;18.20;;;;;;;;;;5027466;28;20356;-74
2023/05/05 04:09:43;;;;;;;19.50;17.17;;;;;;;;;;5028840;28;20601;-77
2023/05/05 04:12:09;;;;;;;29.70;25.60;;;;;;;;;;5028874;28;20026;-70
2023/05/05 04:14:35;;;;;;;37.42;33.40;;;;;;;;;;5025224;28;20091;-71
2023/05/05 04:17:00;;;;;;;42.92;34.47;;;;;;;;;;5020005;28;20021;-72
2023/05/05 04:19:26;;;;;;;48.97;38.05;;;;;;;;;;5029195;28;20900;-70
2023/05/05 04:21:51;;;;;;;21.60;19.27;;;;;;;;;;5029619;28;20036;-75
2023/05/05 04:24:21;;;;;;;19.35;16.17;;;;;;;;;;5031144;28;20065;-73
2023/05/05 04:26:47;;;;;;;16.70;14.93;;;;;;;;;;5030958;28;20298;-73
2023/05/05 04:29:12;;;;;;;15.20;13.65;;;;;;;;;;5030749;28;20024;-72
2023/05/05 04:31:37;;;;;;;21.80;19.23;;;;;;;;;;5029917;28;20025;-75
2023/05/05 04:34:03;;;;;;;17.75;15.88;;;;;;;;;;5033059;28;20108;-70
2023/05/05 04:36:28;;;;;;;20.27;18.15;;;;;;;;;;5028991;28;20331;-71
2023/05/05 04:38:53;;;;;;;18.52;16.50;;;;;;;;;;5027774;28;20294;-70
2023/05/05 04:41:20;;;;;;;26.17;23.40;;;;;;;;;;5020688;28;20041;-75
2023/05/05 04:43:45;;;;;;;44.75;37.38;;;;;;;;;;5028073;28;20163;-74
2023/05/05 04:46:11;;;;;;;422.63;254.52;;;;;;;;;;5009206;28;20109;-75
2023/05/05 04:48:37;;;;;;;456.90;286.92;;;;;;;;;;4939189;28;20354;-70
2023/05/05 04:51:03;;;;;;;157.75;101.53;;;;;;;;;;4951997;28;20033;-70
2023/05/05 04:53:29;;;;;;;62.80;46.47;;;;;;;;;;4950452;28;20027;-70
2023/05/05 04:55:55;;;;;;;43.20;36.70;;;;;;;;;;4951128;28;20371;-71
2023/05/05 04:58:20;;;;;;;78.15;58.40;;;;;;;;;;4954269;28;20035;-74
2023/05/05 05:00:45;;;;;;;98.32;78.47;;;;;;;;;;4948772;28;20691;-75
2023/05/05 05:03:11;;;;;;;70.35;57.85;;;;;;;;;;4950536;28;20059;-70
2023/05/05 05:05:36;;;;;;;60.78;52.95;;;;;;;;;;4953013;28;20680;-71
2023/05/05 05:08:02;;;;;;;39.03;34.75;;;;;;;;;;4951570;28;20031;-71
2023/05/05 05:10:27;;;;;;;28.67;25.77;;;;;;;;;;4949044;28;20031;-71
2023/05/05 05:12:53;;;;;;;19.67;17.80;;;;;;;;;;4948361;28;20038;-71
2023/05/05 05:15:18;;;;;;;16.92;15.30;;;;;;;;;;4936750;28;20460;-74
2023/05/05 05:17:43;;;;;;;17.23;15.70;;;;;;;;;;4950103;28;20513;-72
2023/05/05 05:20:09;;;;;;;14.63;13.23;;;;;;;;;;4953722;28;20030;-75
2023/05/05 05:22:37;;;;;;;16.50;14.00;;;;;;;;;;4949789;28;20022;-72
2023/05/05 05:25:02;;;;;;;15.98;13.40;;;;;;;;;;4949369;28;20058;-74
2023/05/05 05:27:27;;;;;;;14.52;13.10;;;;;;;;;;4952553;28;20466;-71
2023/05/05 05:29:53;;;;;;;13.63;12.23;;;;;;;;;;4950051;28;20465;-74
2023/05/05 05:32:18;;;;;;;31.85;28.42;;;;;;;;;;4954854;28;20026;-70
2023/05/05 05:34:44;;;;;;;18.23;16.42;;;;;;;;;;4952009;28;20031;-72
2023/05/05 05:37:09;;;;;;;13.38;12.18;;;;;;;;;;4952338;28;20062;-72
2023/05/05 05:39:35;;;;;;;12.38;11.18;;;;;;;;;;4951257;28;20363;-72
2023/05/05 05:42:02;;;;;;;17.30;12.45;;;;;;;;;;4967066;28;20074;-71
2023/05/05 05:44:27;;;;;;;17.20;13.43;;;;;;;;;;4970087;28;20376;-71
2023/05/05 05:46:53;;;;;;;18.40;15.40;;;;;;;;;;4967918;28;20042;-71
2023/05/05 05:49:18;;;;;;;18.10;15.07;;;;;;;;;;4970836;28;20027;-72
2023/05/05 05:51:44;;;;;;;18.30;16.40;;;;;;;;;;4961220;28;20030;-71
2023/05/05 05:54:09;;;;;;;14.93;12.10;;;;;;;;;;4964931;28;20152;-75
2023/05/05 05:56:34;;;;;;;13.52;11.95;;;;;;;;;;4967049;28;20253;-71
2023/05/05 05:59:00;;;;;;;11.63;10.30;;;;;;;;;;4970329;28;20100;-72
2023/05/05 06:01:26;;;;;;;13.63;10.98;;;;;;;;;;4969974;28;20666;-71
2023/05/05 06:03:51;;;;;;;11.35;10.10;;;;;;;;;;4953455;28;20034;-71
2023/05/05 06:06:17;;;;;;;11.20;10.07;;;;;;;;;;4955355;28;20117;-76
2023/05/05 06:08:42;;;;;;;13.73;12.32;;;;;;;;;;4962089;28;20089;-72
2023/05/05 06:11:08;;;;;;;13.80;11.80;;;;;;;;;;4967538;28;20066;-72
2023/05/05 06:13:33;;;;;;;10.27;9.20;;;;;;;;;;4971349;28;20023;-73
2023/05/05 06:15:59;;;;;;;10.02;9.02;;;;;;;;;;4969595;28;20183;-71
2023/05/05 06:18:24;;;;;;;7.85;6.72;;;;;;;;;;4972214;28;20027;-71
2023/05/05 06:20:50;;;;;;;9.70;8.75;;;;;;;;;;4968100;28;20034;-71
2023/05/05 06:23:15;;;;;;;8.65;7.93;;;;;;;;;;4969717;28;20032;-70
2023/05/05 06:25:41;;;;;;;9.75;8.77;;;;;;;;;;4970065;28;20108;-72
2023/05/05 06:28:06;;;;;;;10.57;9.48;;;;;;;;;;4974263;28;20378;-70
2023/05/05 06:30:31;;;;;;;9.50;8.55;;;;;;;;;;4966824;28;20113;-74
2023/05/05 06:32:57;;;;;;;10.07;9.18;;;;;;;;;;4966736;28;20081;-74
2023/05/05 06:35:23;;;;;;;9.60;8.70;;;;;;;;;;4970552;28;20420;-71
2023/05/05 06:37:48;;;;;;;11.45;10.35;;;;;;;;;;4968346;28;20141;-70
2023/05/05 06:40:14;;;;;;;8.93;8.20;;;;;;;;;;4967840;28;20023;-72
2023/05/05 06:42:40;;;;;;;10.85;9.50;;;;;;;;;;4972674;28;20037;-72
2023/05/05 06:45:05;;;;;;;11.68;10.05;;;;;;;;;;4962008;28;20021;-71
2023/05/05 06:47:31;;;;;;;10.48;9.38;;;;;;;;;;4959478;28;20114;-76
2023/05/05 06:49:56;;;;;;;8.95;8.13;;;;;;;;;;4958046;28;20387;-72
2023/05/05 06:52:22;;;;;;;8.85;7.93;;;;;;;;;;4956740;28;20137;-72
2023/05/05 06:54:47;;;;;;;7.25;6.65;;;;;;;;;;4960483;28;20038;-73
2023/05/05 06:57:12;;;;;;;8.82;8.02;;;;;;;;;;4958288;28;20039;-72
2023/05/05 06:59:37;;;;;;;9.18;8.25;;;;;;;;;;4958322;28;20049;-72
2023/05/05 07:02:03;;;;;;;9.60;8.40;;;;;;;;;;4958652;28;20030;-72
2023/05/05 07:04:28;;;;;;;10.98;8.75;;;;;;;;;;4958445;28;20030;-72
2023/05/05 07:06:54;;;;;;;10.10;9.15;;;;;;;;;;4959208;28;20023;-71
2023/05/05 07:09:19;;;;;;;11.57;10.38;;;;;;;;;;4957540;28;20037;-71
2023/05/05 07:11:45;;;;;;;12.30;10.00;;;;;;;;;;4958044;28;20039;-71
2023/05/05 07:14:10;;;;;;;10.70;9.55;;;;;;;;;;4957178;28;20031;-73
2023/05/05 07:16:36;;;;;;;10.65;9.55;;;;;;;;;;4956547;28;20035;-72
2023/05/05 07:19:04;;;;;;;11.35;10.20;;;;;;;;;;4957080;28;20166;-74
2023/05/05 07:21:30;;;;;;;10.98;9.70;;;;;;;;;;4958646;28;20038;-72
2023/05/05 07:23:55;;;;;;;13.80;10.27;;;;;;;;;;4958727;28;20031;-72
2023/05/05 07:26:21;;;;;;;11.48;10.38;;;;;;;;;;4960979;28;20038;-76
2023/05/05 07:28:46;;;;;;;12.60;11.38;;;;;;;;;;4959502;28;20358;-72
2023/05/05 07:31:12;;;;;;;12.75;10.70;;;;;;;;;;4957312;28;20362;-71
2023/05/05 07:33:37;;;;;;;13.00;10.80;;;;;;;;;;4956380;28;20034;-73
2023/05/05 07:36:03;;;;;;;12.98;11.30;;;;;;;;;;4956064;28;20594;-72
2023/05/05 07:38:28;;;;;;;11.07;9.10;;;;;;;;;;4955524;28;20026;-71
2023/05/05 07:40:54;;;;;;;11.27;8.02;;;;;;;;;;4956199;28;20058;-72
2023/05/05 07:43:19;;;;;;;8.77;6.43;;;;;;;;;;4957211;28;20034;-75
2023/05/05 07:45:45;;;;;;;8.38;6.05;;;;;;;;;;4958275;28;20023;-73
2023/05/05 07:48:10;;;;;;;6.18;5.57;;;;;;;;;;4956699;28;20427;-74
2023/05/05 07:50:35;;;;;;;6.28;5.68;;;;;;;;;;4956669;28;20041;-73
2023/05/05 07:53:01;;;;;;;6.43;5.82;;;;;;;;;;4955940;28;20061;-76
2023/05/05 07:55:27;;;;;;;5.28;4.53;;;;;;;;;;4958523;28;20081;-71
2023/05/05 07:57:52;;;;;;;5.32;4.88;;;;;;;;;;4957840;28;20359;-72
2023/05/05 08:00:18;;;;;;;5.70;4.72;;;;;;;;;;4955375;28;20125;-72
2023/05/05 08:02:43;;;;;;;7.00;4.82;;;;;;;;;;4957276;28;20041;-72
2023/05/05 08:05:09;;;;;;;8.68;4.80;;;;;;;;;;4956427;28;20378;-76
2023/05/05 08:07:37;;;;;;;5.40;4.05;;;;;;;;;;4954928;28;20027;-75
2023/05/05 08:10:03;;;;;;;5.05;4.60;;;;;;;;;;4956631;28;20023;-74
2023/05/05 08:12:28;;;;;;;4.90;4.38;;;;;;;;;;4957250;28;20026;-72
2023/05/05 08:14:54;;;;;;;5.60;4.65;;;;;;;;;;4953271;28;20045;-75
2023/05/05 08:17:19;;;;;;;4.60;4.20;;;;;;;;;;4955194;28;20026;-74
2023/05/05 08:19:45;;;;;;;4.75;4.30;;;;;;;;;;4956820;28;20169;-72
2023/05/05 08:22:10;;;;;;;5.45;4.45;;;;;;;;;;4953601;28;20445;-74
2023/05/05 08:24:35;;;;;;;5.07;4.10;;;;;;;;;;4963031;28;20035;-74
2023/05/05 08:27:01;;;;;;;4.00;3.67;;;;;;;;;;4963200;28;20381;-72
2023/05/05 08:29:26;;;;;;;5.05;3.88;;;;;;;;;;4960720;28;20399;-73
2023/05/05 08:31:52;;;;;;;4.13;3.83;;;;;;;;;;4971179;28;20465;-72
2023/05/05 08:34:17;;;;;;;4.60;3.63;;;;;;;;;;4972397;28;20039;-72
2023/05/05 08:36:42;;;;;;;6.57;4.05;;;;;;;;;;4970909;28;20022;-72
2023/05/05 08:39:08;;;;;;;5.03;3.90;;;;;;;;;;4968708;28;20034;-74
2023/05/05 08:41:33;;;;;;;4.45;3.63;;;;;;;;;;4973305;28;20532;-74
2023/05/05 08:43:58;;;;;;;4.28;3.70;;;;;;;;;;4971998;28;20111;-71
2023/05/05 08:46:26;;;;;;;5.22;3.33;;;;;;;;;;4974790;28;20763;-76
2023/05/05 08:48:53;;;;;;;5.25;3.83;;;;;;;;;;4966220;28;20117;-75
2023/05/05 08:51:19;;;;;;;5.30;3.67;;;;;;;;;;4962701;28;20026;-73
2023/05/05 08:53:59;;;;;;;4.75;3.67;;;;;;;;;;4956719;28;21069;-73
2023/05/05 08:56:28;;;;;;;4.95;3.22;;;;;;;;;;4954645;28;20034;-73
2023/05/05 08:58:55;;;;;;;4.32;3.45;;;;;;;;;;4956310;28;20126;-72
2023/05/05 09:01:20;;;;;;;4.32;3.92;;;;;;;;;;4954272;28;20515;-72
2023/05/05 09:03:46;;;;;;;5.93;3.80;;;;;;;;;;4970989;28;20026;-75
2023/05/05 09:06:11;;;;;;;4.85;4.45;;;;;;;;;;4957064;28;20065;-73
2023/05/05 09:08:37;;;;;;;4.28;3.50;;;;;;;;;;4957533;28;20031;-75
2023/05/05 09:11:02;;;;;;;4.53;4.13;;;;;;;;;;4959280;28;20359;-73
2023/05/05 09:13:31;;;;;;;4.57;3.72;;;;;;;;;;4954872;28;20088;-73
2023/05/05 09:15:57;;;;;;;5.72;3.85;;;;;;;;;;4953074;28;20034;-73
2023/05/05 09:18:22;;;;;;;4.38;3.70;;;;;;;;;;4954601;28;20438;-73
2023/05/05 09:20:47;;;;;;;5.32;4.63;;;;;;;;;;4956275;28;20128;-75
2023/05/05 09:23:14;;;;;;;5.40;3.90;;;;;;;;;;4959047;28;20438;-76
2023/05/05 09:25:40;;;;;;;14.15;4.15;;;;;;;;;;4956134;28;20023;-76
2023/05/05 09:28:09;;;;;;;4.30;3.90;;;;;;;;;;4953221;28;20029;-74
2023/05/05 09:30:35;;;;;;;4.25;3.78;;;;;;;;;;4953491;28;20402;-74
2023/05/05 09:33:01;;;;;;;4.78;3.63;;;;;;;;;;4954891;28;20033;-75
2023/05/05 09:35:26;;;;;;;4.70;4.25;;;;;;;;;;4955198;28;20081;-74
2023/05/05 09:37:52;;;;;;;4.43;3.72;;;;;;;;;;4952608;28;20041;-77
2023/05/05 09:40:18;;;;;;;3.97;3.60;;;;;;;;;;4953606;28;20034;-74
2023/05/05 09:42:43;;;;;;;3.97;3.58;;;;;;;;;;4954643;28;20338;-74
2023/05/05 09:45:18;;;;;;;5.32;3.38;;;;;;;;;;4955597;28;21098;-75
2023/05/05 09:47:44;;;;;;;4.05;3.63;;;;;;;;;;4953801;28;20026;-75
2023/05/05 09:50:14;;;;;;;4.05;3.60;;;;;;;;;;4954587;28;20143;-77
2023/05/05 09:52:40;;;;;;;3.50;3.30;;;;;;;;;;4958398;28;20041;-74
2023/05/05 09:55:07;;;;;;;3.97;3.65;;;;;;;;;;4952663;28;20031;-74
2023/05/05 09:57:32;;;;;;;3.95;3.63;;;;;;;;;;4955016;28;20113;-75
2023/05/05 09:59:58;;;;;;;7.80;3.95;;;;;;;;;;4953087;28;20446;-75
2023/05/05 10:02:31;;;;;;;4.30;3.90;;;;;;;;;;4954680;28;20033;-75
2023/05/05 10:05:23;;;;;;;4.25;3.85;;;;;;;;;;4957190;28;20081;-73
2023/05/05 10:07:48;;;;;;;8.00;3.65;;;;;;;;;;4963752;28;20078;-74
2023/05/05 10:10:15;;;;;;;4.90;3.90;;;;;;;;;;4968585;28;20485;-75
2023/05/05 10:12:41;;;;;;;4.53;3.75;;;;;;;;;;4961525;28;20034;-73
2023/05/05 10:15:07;;;;;;;4.00;3.05;;;;;;;;;;4953699;28;21001;-73
2023/05/05 10:17:52;;;;;;;4.80;3.60;;;;;;;;;;4954028;28;20065;-73
2023/05/05 10:20:17;;;;;;;3.80;3.50;;;;;;;;;;4959150;28;20125;-76
2023/05/05 10:22:50;;;;;;;4.10;3.70;;;;;;;;;;4955032;28;20041;-73
2023/05/05 10:25:16;;;;;;;5.82;3.65;;;;;;;;;;4958427;28;20582;-74
2023/05/05 10:27:43;;;;;;;5.15;4.10;;;;;;;;;;4954276;28;20415;-74
2023/05/05 10:30:11;;;;;;;3.60;3.30;;;;;;;;;;4954604;28;20109;-77
2023/05/05 10:32:41;;;;;;;4.53;4.10;;;;;;;;;;4970566;28;20121;-75
2023/05/05 10:35:07;;;;;;;4.13;3.72;;;;;;;;;;4970950;28;20153;-75
2023/05/05 10:37:35;;;;;;;4.30;3.63;;;;;;;;;;4966738;28;20030;-74
2023/05/05 10:40:01;;;;;;;3.90;3.60;;;;;;;;;;4969808;28;20026;-77
2023/05/05 10:42:28;;;;;;;3.72;3.40;;;;;;;;;;4967114;28;20058;-74
2023/05/05 10:44:53;;;;;;;5.65;3.90;;;;;;;;;;4966181;28;20889;-73
2023/05/05 10:47:20;;;;;;;6.45;3.83;;;;;;;;;;4971049;28;20033;-74
2023/05/05 10:49:48;;;;;;;4.13;3.72;;;;;;;;;;4966386;28;20026;-74
2023/05/05 10:52:24;;;;;;;4.22;3.70;;;;;;;;;;4967709;28;20102;-74
2023/05/05 10:55:08;;;;;;;5.10;3.70;;;;;;;;;;4968177;28;20046;-75
2023/05/05 10:57:38;;;;;;;3.38;3.10;;;;;;;;;;4968984;28;20450;-72
2023/05/05 11:00:04;;;;;;;3.50;3.20;;;;;;;;;;4968265;28;20112;-74
2023/05/05 11:02:30;;;;;;;4.15;3.55;;;;;;;;;;4971788;28;20465;-74
2023/05/05 11:05:04;;;;;;;4.53;3.45;;;;;;;;;;4968088;28;20353;-75
2023/05/05 11:07:30;;;;;;;3.67;3.35;;;;;;;;;;4967478;28;20401;-73
2023/05/05 11:09:57;;;;;;;9.90;4.03;;;;;;;;;;4966080;28;20039;-74
2023/05/05 11:12:22;;;;;;;4.28;3.10;;;;;;;;;;4968867;28;20357;-76
2023/05/05 11:15:07;;;;;;;3.55;3.30;;;;;;;;;;4967564;28;20022;-77
2023/05/05 11:17:46;;;;;;;3.65;3.35;;;;;;;;;;4968712;28;20133;-75
2023/05/05 11:20:11;;;;;;;7.22;3.53;;;;;;;;;;4967058;28;20504;-73
2023/05/05 11:22:56;;;;;;;3.42;3.13;;;;;;;;;;4969943;28;20042;-73
2023/05/05 11:25:33;;;;;;;3.88;3.58;;;;;;;;;;4966533;28;20066;-76
2023/05/05 11:28:18;;;;;;;3.60;3.30;;;;;;;;;;4972422;28;20019;-73
2023/05/05 11:30:56;;;;;;;6.18;5.60;;;;;;;;;;4970785;28;20052;-73
2023/05/05 11:33:28;;;;;;;4.65;4.07;;;;;;;;;;4968243;28;20386;-72
2023/05/05 11:36:01;;;;;;;4.57;3.92;;;;;;;;;;4982872;28;20567;-72
2023/05/05 11:38:45;;;;;;;4.95;3.90;;;;;;;;;;4957291;28;20658;-73
2023/05/05 11:41:22;;;;;;;4.55;4.25;;;;;;;;;;4972073;28;20062;-73
2023/05/05 11:43:48;;;;;;;3.78;3.45;;;;;;;;;;4971601;28;20435;-74
2023/05/05 11:46:14;;;;;;;5.50;3.70;;;;;;;;;;4973143;28;20084;-74
2023/05/05 11:48:43;;;;;;;5.15;3.50;;;;;;;;;;4973474;28;20438;-75
2023/05/05 11:51:12;;;;;;;3.97;3.67;;;;;;;;;;4956840;28;20518;-72
2023/05/05 11:53:46;;;;;;;5.05;3.78;;;;;;;;;;4972767;28;20106;-75
2023/05/05 11:56:20;;;;;;;5.47;3.72;;;;;;;;;;4975051;28;20066;-75
2023/05/05 11:59:04;;;;;;;5.57;4.43;;;;;;;;;;4974273;28;20038;-77
2023/05/05 12:01:30;;;;;;;5.45;3.47;;;;;;;;;;4968119;28;20034;-74
2023/05/05 12:03:55;;;;;;;7.15;3.63;;;;;;;;;;4976887;28;20438;-73
2023/05/05 12:06:21;;;;;;;4.10;3.70;;;;;;;;;;4969172;28;20768;-73
2023/05/05 12:08:46;;;;;;;4.07;3.10;;;;;;;;;;4970204;28;20030;-74
2023/05/05 12:11:11;;;;;;;3.25;3.05;;;;;;;;;;4973910;28;20023;-73
2023/05/05 12:13:37;;;;;;;12.02;3.70;;;;;;;;;;4973038;28;20093;-75
2023/05/05 12:16:09;;;;;;;3.72;3.33;;;;;;;;;;4972601;28;20026;-73
2023/05/05 12:18:35;;;;;;;5.15;3.50;;;;;;;;;;4973051;28;20034;-75
2023/05/05 12:21:00;;;;;;;3.85;3.40;;;;;;;;;;4973235;28;20093;-73
2023/05/05 12:23:28;;;;;;;6.07;3.40;;;;;;;;;;4971062;28;20038;-73
2023/05/05 12:25:54;;;;;;;4.00;3.70;;;;;;;;;;4970551;28;20110;-76
2023/05/05 12:28:19;;;;;;;5.40;3.90;;;;;;;;;;4968734;28;20118;-74
2023/05/05 12:30:55;;;;;;;3.70;3.35;;;;;;;;;;4972147;28;20487;-74
2023/05/05 12:33:20;;;;;;;4.57;3.13;;;;;;;;;;4974224;28;20045;-74
2023/05/05 12:35:46;;;;;;;4.15;3.75;;;;;;;;;;4969072;28;20031;-75
2023/05/05 12:38:12;;;;;;;4.72;3.40;;;;;;;;;;4969838;28;20034;-73
2023/05/05 12:40:41;;;;;;;5.05;3.80;;;;;;;;;;4967369;28;20046;-73
2023/05/05 12:43:06;;;;;;;;;;;;;;;;;;4961593;28;20350;-75
2023/05/05 12:45:32;;;;;;;6.30;3.80;;;;;;;;;;4952164;28;20330;-75
2023/05/05 12:47:57;;;;;;;5.97;3.50;;;;;;;;;;4954391;28;20972;-74
2023/05/05 12:50:32;;;;;;;5.70;3.70;;;;;;;;;;4956616;28;20030;-72
2023/05/05 12:52:57;;;;;;;5.03;3.60;;;;;;;;;;4958941;28;20061;-75
2023/05/05 12:55:38;;;;;;;5.97;3.08;;;;;;;;;;4955115;28;20030;-75
2023/05/05 12:58:04;;;;;;;5.97;4.45;;;;;;;;;;4954897;28;20038;-77
2023/05/05 13:00:29;;;;;;;5.22;3.78;;;;;;;;;;4955690;28;20365;-75
2023/05/05 13:02:55;;;;;;;4.20;3.70;;;;;;;;;;4957360;28;20141;-77
2023/05/05 13:05:35;;;;;;;4.22;3.83;;;;;;;;;;4956436;28;20104;-75
2023/05/05 13:08:00;;;;;;;4.15;3.40;;;;;;;;;;4954921;28;20038;-74
2023/05/05 13:10:27;;;;;;;3.88;3.47;;;;;;;;;;4955076;28;20081;-75
2023/05/05 13:12:56;;;;;;;4.35;3.92;;;;;;;;;;4959195;28;20474;-73
2023/05/05 13:15:22;;;;;;;4.70;3.55;;;;;;;;;;4976179;28;20030;-75
2023/05/05 13:17:47;;;;;;;4.28;3.88;;;;;;;;;;4971076;28;20037;-75
2023/05/05 13:20:12;;;;;;;6.82;5.72;;;;;;;;;;4967073;28;20477;-73
2023/05/05 13:22:38;;;;;;;6.30;3.80;;;;;;;;;;4966277;28;20106;-75
2023/05/05 13:25:03;;;;;;;3.95;3.40;;;;;;;;;;4968756;28;20732;-74
2023/05/05 13:27:30;;;;;;;3.80;3.38;;;;;;;;;;4969078;28;20353;-73
2023/05/05 13:29:55;;;;;;;3.10;2.90;;;;;;;;;;4968689;28;20045;-71
2023/05/05 13:32:21;;;;;;;3.53;3.22;;;;;;;;;;4959311;28;20026;-76
2023/05/05 13:34:46;;;;;;;3.40;3.20;;;;;;;;;;4969071;28;20104;-74
2023/05/05 13:37:11;;;;;;;3.53;3.10;;;;;;;;;;4956499;28;20031;-73
2023/05/05 13:39:37;;;;;;;5.13;3.15;;;;;;;;;;4969283;28;20130;-75
2023/05/05 13:42:02;;;;;;;3.42;3.13;;;;;;;;;;4970190;28;20050;-72
2023/05/05 13:44:27;;;;;;;3.50;3.20;;;;;;;;;;4970545;28;20054;-72
2023/05/05 13:46:53;;;;;;;3.83;3.20;;;;;;;;;;4968542;28;20026;-75
2023/05/05 13:49:19;;;;;;;4.97;3.50;;;;;;;;;;4969892;28;20030;-72
2023/05/05 13:51:45;;;;;;;2.83;2.63;;;;;;;;;;4971376;28;20062;-71
2023/05/05 13:54:11;;;;;;;3.17;2.88;;;;;;;;;;4968287;28;20042;-75
2023/05/05 13:56:36;;;;;;;4.50;2.80;;;;;;;;;;4956501;28;20461;-72
2023/05/05 13:59:02;;;;;;;3.67;2.83;;;;;;;;;;4968321;28;20027;-74
2023/05/05 14:01:27;;;;;;;3.15;2.88;;;;;;;;;;4953093;28;20449;-72
2023/05/05 14:03:52;;;;;;;3.63;2.97;;;;;;;;;;4955372;28;20034;-71
2023/05/05 14:06:18;;;;;;;4.80;2.72;;;;;;;;;;4954677;28;20054;-76
2023/05/05 14:08:44;;;;;;;6.95;3.00;;;;;;;;;;4952205;28;20018;-71
2023/05/05 14:11:10;;;;;;;4.38;2.83;;;;;;;;;;4954499;28;20357;-74
2023/05/05 14:13:35;;;;;;;4.18;3.03;;;;;;;;;;4952965;28;20041;-72
2023/05/05 14:16:01;;;;;;;4.22;2.95;;;;;;;;;;4950890;28;20030;-75
2023/05/05 14:18:27;;;;;;;3.45;3.15;;;;;;;;;;4954294;28;20062;-72
2023/05/05 14:20:52;;;;;;;4.15;3.30;;;;;;;;;;4956104;28;20023;-72
2023/05/05 14:23:18;;;;;;;3.50;3.20;;;;;;;;;;4954152;28;20038;-72
2023/05/05 14:25:43;;;;;;;5.75;3.47;;;;;;;;;;4954379;28;20326;-73
2023/05/05 14:28:08;;;;;;;5.53;3.35;;;;;;;;;;4955150;28;20319;-74
2023/05/05 14:30:34;;;;;;;7.57;4.10;;;;;;;;;;4955329;28;20081;-75